Terminal Aerodrome Forecast
Issued by NWS

Home | Current Version | Previous Version | Text Only | Print | Product List | Glossary On
Versions: 1 2 3 4 5 6 7 8 9 10 11 12 13 14
364
FTUS44 KJAN 072322
TAFGTR
TAF
KGTR 072322Z 0800/0824 36003KT P6SM OVC025
     FM080900 35009KT P6SM OVC035
     FM081400 35011G17KT P6SM OVC150=

USA.gov is the U.S. government's official web portal to all federal, state and local government web resources and services.